createdAt,value
2019-03-21T00:00:34.591Z,99.90
2019-03-21T00:03:04.648Z,99.90
2019-03-21T00:05:36.378Z,99.90
2019-03-21T00:08:08.047Z,99.90
2019-03-21T00:11:24.745Z,99.90
2019-03-21T00:14:06.385Z,99.90
2019-03-21T00:16:28.014Z,99.90
2019-03-21T00:18:57.825Z,99.90
2019-03-21T00:21:27.682Z,99.90
2019-03-21T00:23:57.743Z,99.90
2019-03-21T00:26:27.642Z,99.90
2019-03-21T00:28:57.521Z,99.90
2019-03-21T00:31:27.396Z,99.90
2019-03-21T00:33:57.552Z,99.90
2019-03-21T00:36:27.532Z,99.90
2019-03-21T00:38:57.732Z,99.90
2019-03-21T00:41:27.834Z,99.90
2019-03-21T00:43:57.557Z,99.90
2019-03-21T00:46:27.353Z,99.90
2019-03-21T00:48:57.446Z,99.90
2019-03-21T00:51:27.290Z,99.90
2019-03-21T00:53:57.985Z,99.90
2019-03-21T00:56:28.413Z,99.90
2019-03-21T00:58:58.381Z,99.90
2019-03-21T01:01:28.270Z,99.90
2019-03-21T01:03:58.113Z,99.90
2019-03-21T01:06:28.176Z,99.90
2019-03-21T01:08:58.295Z,99.90
2019-03-21T01:11:28.149Z,99.90
2019-03-21T01:13:58.247Z,99.90
2019-03-21T01:16:28.178Z,99.90
2019-03-21T01:18:58.101Z,99.90
2019-03-21T01:21:27.962Z,99.90
2019-03-21T01:23:57.892Z,99.90
2019-03-21T01:26:27.757Z,99.90
2019-03-21T01:28:57.708Z,99.90
2019-03-21T01:31:28.314Z,99.90
2019-03-21T01:33:58.495Z,99.90
2019-03-21T01:36:28.319Z,99.90
2019-03-21T01:38:59.165Z,99.90
2019-03-21T01:41:29.050Z,99.90
2019-03-21T01:43:58.942Z,99.90
2019-03-21T01:46:28.959Z,99.90
2019-03-21T01:48:58.847Z,99.90
2019-03-21T01:51:28.850Z,99.90
2019-03-21T01:53:58.683Z,99.90
2019-03-21T01:56:29.836Z,99.90
2019-03-21T01:58:59.966Z,99.90
2019-03-21T02:01:29.852Z,99.90
2019-03-21T02:04:00.127Z,99.90
2019-03-21T04:47:42.844Z,99.90
2019-03-21T04:50:15.120Z,99.90
2019-03-21T04:52:44.857Z,99.90
2019-03-21T04:55:15.350Z,99.90
2019-03-21T04:57:45.115Z,99.90
2019-03-21T05:00:17.863Z,99.90
2019-03-21T05:02:47.726Z,99.90
2019-03-21T05:05:17.410Z,99.90
2019-03-21T05:07:47.396Z,99.90
2019-03-21T05:10:17.065Z,99.90
2019-03-21T05:12:46.789Z,99.90
2019-03-21T05:15:21.891Z,99.90
2019-03-21T05:17:52.250Z,99.90
2019-03-21T05:20:24.187Z,99.90
2019-03-21T05:22:54.055Z,99.90
2019-03-21T05:25:23.861Z,99.90
2019-03-21T05:27:53.680Z,99.90
2019-03-21T05:30:30.183Z,99.90
2019-03-21T05:32:59.986Z,99.90
2019-03-21T05:35:30.032Z,99.90
2019-03-21T05:37:59.820Z,99.90
2019-03-21T05:40:29.669Z,99.90
2019-03-21T05:43:11.104Z,99.90
2019-03-21T05:45:40.897Z,99.90
2019-03-21T05:48:10.796Z,99.90
2019-03-21T05:50:40.857Z,99.90
2019-03-21T05:53:10.596Z,99.90
2019-03-21T05:55:40.322Z,99.90
2019-03-21T05:58:10.109Z,99.90
2019-03-21T06:00:41.820Z,99.90
2019-03-21T06:03:17.697Z,99.90
2019-03-21T06:05:51.438Z,99.90
2019-03-21T06:08:24.648Z,99.90
2019-03-21T06:10:54.442Z,99.90
2019-03-21T06:13:24.168Z,99.90
2019-03-21T06:15:54.033Z,99.90
2019-03-21T06:18:38.445Z,99.90
2019-03-21T06:21:19.433Z,99.90
2019-03-21T06:24:20.317Z,99.90
2019-03-21T06:27:00.513Z,99.90
2019-03-21T06:29:30.577Z,99.90
2019-03-21T06:32:00.608Z,99.90
2019-03-21T06:34:30.465Z,99.90
2019-03-21T06:37:00.393Z,99.90
2019-03-21T06:39:30.276Z,99.90
2019-03-21T06:41:59.985Z,99.90
2019-03-21T06:44:29.778Z,99.90
2019-03-21T06:46:59.580Z,99.90
2019-03-21T06:49:29.752Z,99.90
2019-03-21T06:51:59.565Z,99.90
2019-03-21T06:54:29.650Z,99.90
2019-03-21T06:56:59.479Z,99.90
2019-03-21T06:59:29.636Z,99.90
2019-03-21T07:01:59.741Z,99.90
2019-03-21T07:04:29.490Z,99.90
2019-03-21T07:07:07.689Z,99.90
2019-03-21T07:09:30.950Z,99.90
2019-03-21T07:12:00.814Z,99.90
2019-03-21T07:14:30.549Z,99.90
2019-03-21T07:17:00.928Z,99.90
2019-03-21T07:19:30.813Z,99.90
2019-03-21T07:22:00.691Z,99.90
2019-03-21T07:24:30.508Z,99.90
2019-03-21T07:27:00.591Z,99.90
2019-03-21T07:29:30.437Z,99.90
2019-03-21T07:32:00.182Z,99.90
2019-03-21T07:34:29.857Z,99.90
2019-03-21T07:36:59.770Z,99.90
2019-03-21T07:39:29.658Z,99.90
2019-03-21T07:42:01.209Z,99.90
2019-03-21T07:44:31.232Z,99.90
2019-03-21T07:47:11.824Z,99.90
2019-03-21T07:49:32.862Z,99.90
2019-03-21T07:52:03.083Z,99.90
2019-03-21T07:54:33.127Z,99.90
2019-03-21T07:57:03.022Z,99.90
2019-03-21T07:59:32.846Z,99.90
2019-03-21T08:02:02.817Z,99.90
2019-03-21T08:04:32.545Z,99.90
2019-03-21T08:07:02.304Z,99.90
2019-03-21T08:09:32.142Z,99.90
2019-03-21T08:12:02.114Z,99.90
2019-03-21T08:14:31.982Z,99.90
2019-03-21T08:17:01.901Z,99.90
2019-03-21T08:19:31.725Z,99.90
2019-03-21T08:22:01.503Z,99.90
2019-03-21T08:24:31.788Z,99.90
2019-03-21T08:27:02.084Z,99.90
2019-03-21T08:29:32.833Z,99.90
2019-03-21T08:32:02.727Z,99.90
2019-03-21T08:34:32.609Z,99.90
2019-03-21T08:37:02.527Z,99.90
2019-03-21T08:39:32.541Z,99.90
2019-03-21T08:42:02.417Z,99.90
2019-03-21T08:44:32.320Z,99.90
2019-03-21T08:47:02.274Z,99.90
2019-03-21T08:49:32.013Z,99.90
2019-03-21T08:52:02.269Z,99.90
2019-03-21T08:54:32.137Z,99.90
2019-03-21T08:57:02.084Z,99.90
2019-03-21T08:59:31.964Z,99.90
2019-03-21T09:02:01.812Z,99.90
2019-03-21T09:04:31.606Z,99.90
2019-03-21T09:07:01.409Z,99.90
2019-03-21T09:09:31.147Z,99.90
2019-03-21T09:12:01.181Z,99.90
2019-03-21T09:14:30.961Z,99.90
2019-03-21T09:17:00.749Z,99.90
2019-03-21T09:19:30.608Z,99.90
2019-03-21T09:22:00.332Z,99.90
2019-03-21T09:24:30.151Z,99.90
2019-03-21T09:26:59.918Z,99.90
2019-03-21T09:29:29.676Z,99.90
2019-03-21T09:31:59.439Z,99.90
2019-03-21T09:34:29.377Z,99.90
2019-03-21T09:36:59.057Z,99.90
2019-03-21T09:39:28.857Z,99.90
2019-03-21T09:41:58.547Z,99.90
2019-03-21T09:44:29.221Z,99.90
2019-03-21T09:46:59.050Z,99.90
2019-03-21T09:49:28.917Z,99.90
2019-03-21T09:51:58.735Z,99.90
2019-03-21T09:54:28.727Z,99.90
2019-03-21T09:56:58.489Z,99.90
2019-03-21T09:59:28.561Z,99.90
2019-03-21T10:01:58.361Z,99.90
2019-03-21T10:04:28.197Z,99.90
2019-03-21T10:06:58.281Z,99.30
2019-03-21T10:09:28.439Z,97.10
2019-03-21T10:11:58.200Z,98.00
2019-03-21T10:14:28.201Z,96.80
2019-03-21T10:16:58.215Z,95.60
2019-03-21T10:19:28.190Z,94.90
2019-03-21T10:21:57.986Z,95.10
2019-03-21T10:24:27.843Z,93.90
2019-03-21T10:26:57.714Z,91.50
2019-03-21T10:29:27.838Z,91.90
2019-03-21T10:31:57.894Z,92.10
2019-03-21T10:34:28.071Z,93.00
2019-03-21T10:36:58.101Z,91.90
2019-03-21T10:39:27.789Z,92.40
2019-03-21T10:41:57.502Z,90.60
2019-03-21T10:44:27.265Z,90.50
2019-03-21T10:46:57.088Z,88.80
2019-03-21T10:49:27.297Z,88.40
2019-03-21T10:51:57.449Z,87.80
2019-03-21T10:54:27.312Z,86.10
2019-03-21T10:56:58.225Z,89.00
2019-03-21T10:59:28.356Z,90.90
2019-03-21T11:02:06.900Z,92.70
2019-03-21T11:04:29.689Z,92.90
2019-03-21T11:07:01.458Z,91.10
2019-03-21T11:09:31.684Z,91.80
2019-03-21T11:12:01.509Z,94.10
2019-03-21T11:14:31.557Z,94.40
2019-03-21T11:17:01.594Z,93.70
2019-03-21T11:19:31.368Z,93.30
2019-03-21T11:22:06.346Z,91.80
2019-03-21T11:24:32.738Z,92.00
2019-03-21T11:27:02.529Z,92.20
2019-03-21T11:29:32.625Z,91.60
2019-03-21T11:32:02.448Z,90.80
2019-03-21T11:34:32.546Z,90.80
2019-03-21T11:37:02.428Z,91.00
2019-03-21T11:39:32.421Z,92.00
2019-03-21T11:42:02.570Z,91.10
2019-03-21T11:44:32.621Z,91.20
2019-03-21T11:47:02.466Z,90.50
2019-03-21T11:49:32.356Z,90.50
2019-03-21T11:52:02.228Z,90.60
2019-03-21T11:54:32.095Z,90.10
2019-03-21T11:57:01.879Z,87.60
2019-03-21T11:59:41.581Z,87.40
2019-03-21T12:02:03.481Z,87.50
2019-03-21T12:04:33.252Z,85.30
2019-03-21T12:07:03.348Z,83.60
2019-03-21T12:09:33.478Z,83.80
2019-03-21T12:12:03.265Z,82.30
2019-03-21T12:14:33.067Z,82.30
2019-03-21T12:17:02.858Z,79.90
2019-03-21T12:19:32.829Z,78.00
2019-03-21T12:22:02.633Z,77.50
2019-03-21T12:24:32.327Z,78.50
2019-03-21T12:27:02.550Z,78.30
2019-03-21T12:29:32.435Z,77.70
2019-03-21T12:32:02.287Z,75.90
2019-03-21T12:34:32.145Z,75.70
2019-03-21T12:37:01.941Z,74.80
2019-03-21T12:39:32.075Z,72.50
2019-03-21T12:42:01.878Z,70.80
2019-03-21T12:44:31.877Z,71.20
2019-03-21T12:47:01.997Z,70.00
2019-03-21T12:49:32.314Z,68.30
2019-03-21T12:52:02.471Z,66.50
2019-03-21T12:54:32.578Z,67.20
2019-03-21T12:57:02.464Z,65.20
2019-03-21T12:59:32.210Z,63.70
2019-03-21T13:02:02.398Z,62.40
2019-03-21T13:04:32.205Z,64.40
2019-03-21T13:07:01.944Z,61.40
2019-03-21T13:09:31.744Z,59.70
2019-03-21T13:12:01.600Z,58.90
2019-03-21T13:14:31.443Z,58.50
2019-03-21T13:17:01.235Z,58.10
2019-03-21T13:19:31.221Z,57.50
2019-03-21T13:22:00.953Z,56.90
2019-03-21T13:24:30.805Z,56.90
2019-03-21T13:27:00.761Z,56.90
2019-03-21T13:29:30.469Z,55.70
2019-03-21T13:32:00.311Z,56.70
2019-03-21T13:34:30.114Z,55.30
2019-03-21T13:37:00.105Z,54.90
2019-03-21T13:39:29.909Z,54.50
2019-03-21T13:42:00.041Z,53.10
2019-03-21T13:44:29.847Z,51.60
2019-03-21T13:46:59.616Z,50.70
2019-03-21T13:49:29.605Z,50.80
2019-03-21T13:51:59.451Z,51.60
2019-03-21T13:54:29.133Z,51.80
2019-03-21T13:56:59.223Z,51.20
2019-03-21T13:59:28.933Z,51.80
2019-03-21T14:01:58.818Z,50.40
2019-03-21T14:04:28.821Z,48.20
2019-03-21T14:06:58.793Z,44.10
2019-03-21T14:09:28.490Z,43.50
2019-03-21T14:11:58.620Z,41.20
2019-03-21T14:14:28.477Z,39.80
2019-03-21T14:16:58.269Z,39.90
2019-03-21T14:19:28.103Z,39.10
2019-03-21T14:21:58.245Z,38.30
2019-03-21T14:24:28.148Z,37.80
2019-03-21T14:26:58.300Z,38.40
2019-03-21T14:29:28.093Z,38.30
2019-03-21T14:31:57.997Z,37.40
2019-03-21T14:34:28.167Z,36.90
2019-03-21T14:36:59.079Z,36.20
2019-03-21T14:39:29.223Z,38.30
2019-03-21T14:41:59.097Z,37.10
2019-03-21T14:44:28.864Z,35.10
2019-03-21T14:46:59.330Z,35.60
2019-03-21T14:49:30.613Z,35.60
2019-03-21T14:52:03.297Z,34.20
2019-03-21T14:54:34.754Z,34.90
2019-03-21T14:57:05.127Z,34.40
2019-03-21T14:59:34.964Z,33.80
2019-03-21T15:02:04.858Z,32.90
2019-03-21T15:04:34.831Z,32.10
2019-03-21T15:07:04.836Z,31.90
2019-03-21T15:09:34.601Z,31.50
2019-03-21T15:12:04.665Z,33.70
2019-03-21T15:14:34.543Z,33.30
2019-03-21T15:17:04.621Z,33.60
2019-03-21T15:19:35.218Z,33.90
2019-03-21T15:22:05.458Z,32.50
2019-03-21T15:24:35.444Z,32.70
2019-03-21T15:27:05.356Z,32.70
2019-03-21T15:29:35.504Z,34.30
2019-03-21T15:32:05.669Z,33.40
2019-03-21T15:34:35.580Z,32.00
2019-03-21T15:37:05.389Z,32.30
2019-03-21T15:39:35.149Z,31.40
2019-03-21T15:42:05.167Z,32.80
2019-03-21T15:44:34.999Z,34.30
2019-03-21T15:47:05.743Z,33.90
2019-03-21T15:49:35.874Z,35.30
2019-03-21T15:52:06.000Z,34.80
2019-03-21T15:54:35.987Z,34.90
2019-03-21T15:57:05.810Z,34.00
2019-03-21T15:59:35.616Z,35.30
2019-03-21T16:02:05.719Z,33.90
2019-03-21T16:04:35.472Z,33.50
2019-03-21T16:07:05.246Z,32.40
2019-03-21T16:09:35.354Z,33.70
2019-03-21T16:12:05.163Z,33.40
2019-03-21T16:14:35.008Z,32.50
2019-03-21T16:17:04.739Z,33.40
2019-03-21T16:19:34.623Z,34.40
2019-03-21T16:22:04.882Z,35.30
2019-03-21T16:24:34.673Z,34.70
2019-03-21T16:27:04.867Z,34.60
2019-03-21T16:29:34.732Z,36.00
2019-03-21T16:32:04.963Z,35.90
2019-03-21T16:34:35.020Z,34.30
2019-03-21T16:37:05.305Z,35.10
2019-03-21T16:39:35.182Z,35.20
2019-03-21T16:42:05.348Z,36.10
2019-03-21T16:44:35.124Z,35.60
2019-03-21T16:47:04.949Z,35.70
2019-03-21T16:49:35.381Z,34.90
2019-03-21T16:52:05.275Z,33.30
2019-03-21T16:54:35.059Z,34.60
2019-03-21T16:57:04.985Z,36.90
2019-03-21T16:59:34.898Z,38.30
2019-03-21T17:02:04.709Z,36.90
2019-03-21T17:04:34.578Z,36.20
2019-03-21T17:07:04.473Z,38.30
2019-03-21T17:09:34.502Z,39.80
2019-03-21T17:12:04.565Z,40.50
2019-03-21T17:14:34.540Z,41.90
2019-03-21T17:17:04.314Z,41.70
2019-03-21T17:19:34.344Z,41.50
2019-03-21T17:22:04.187Z,42.70
2019-03-21T17:24:34.377Z,42.90
2019-03-21T17:27:04.537Z,44.40
2019-03-21T17:29:34.267Z,45.50
2019-03-21T17:32:04.432Z,45.00
2019-03-21T17:34:34.267Z,46.80
2019-03-21T17:37:04.222Z,47.70
2019-03-21T17:39:33.973Z,48.20
2019-03-21T17:42:03.777Z,48.40
2019-03-21T17:44:33.689Z,49.40
2019-03-21T17:47:03.664Z,49.50
2019-03-21T17:49:33.495Z,49.90
2019-03-21T17:52:03.275Z,50.10
2019-03-21T17:54:41.491Z,49.80
2019-03-21T17:57:05.034Z,49.80
2019-03-21T17:59:34.852Z,49.60
2019-03-21T18:02:04.625Z,49.70
2019-03-21T18:04:35.814Z,50.50
2019-03-21T18:07:06.005Z,50.30
2019-03-21T18:09:36.079Z,50.50
2019-03-21T18:12:06.248Z,50.90
2019-03-21T18:14:36.159Z,51.40
2019-03-21T18:17:06.350Z,51.70
2019-03-21T18:19:36.228Z,52.20
2019-03-21T18:22:06.054Z,52.40
2019-03-21T18:24:35.972Z,52.90
2019-03-21T18:27:06.187Z,53.10
2019-03-21T18:29:36.018Z,53.20
2019-03-21T18:32:06.122Z,53.80
2019-03-21T18:34:36.237Z,54.20
2019-03-21T18:37:05.990Z,54.50
2019-03-21T18:39:36.038Z,55.20
2019-03-21T18:42:05.970Z,55.30
2019-03-21T18:44:36.056Z,55.60
2019-03-21T18:47:05.779Z,55.90
2019-03-21T18:49:35.499Z,56.60
2019-03-21T18:52:05.320Z,56.90
2019-03-21T18:54:35.164Z,57.30
2019-03-21T18:57:05.002Z,57.90
2019-03-21T18:59:35.186Z,58.20
2019-03-21T19:02:05.011Z,58.20
2019-03-21T19:04:34.926Z,59.00
2019-03-21T19:07:04.886Z,59.50
2019-03-21T19:09:34.847Z,59.80
2019-03-21T19:12:04.738Z,59.90
2019-03-21T19:14:34.514Z,61.10
2019-03-21T19:17:04.250Z,61.20
2019-03-21T19:19:34.090Z,61.70
2019-03-21T19:22:03.844Z,62.90
2019-03-21T19:24:33.627Z,64.00
2019-03-21T19:27:03.605Z,64.60
2019-03-21T19:29:33.537Z,65.40
2019-03-21T19:32:03.334Z,66.10
2019-03-21T19:34:33.628Z,67.00
2019-03-21T19:37:03.694Z,68.10
2019-03-21T19:39:34.071Z,69.40
2019-03-21T19:42:05.608Z,69.90
2019-03-21T19:44:35.273Z,70.20
2019-03-21T19:47:05.144Z,71.80
2019-03-21T19:49:34.977Z,72.70
2019-03-21T19:52:05.577Z,72.20
2019-03-21T19:54:35.392Z,73.20
2019-03-21T19:57:05.301Z,74.80
2019-03-21T19:59:35.335Z,75.60
2019-03-21T20:02:05.237Z,76.10
2019-03-21T20:04:35.249Z,78.30
2019-03-21T20:07:05.734Z,80.10
2019-03-21T20:09:35.725Z,79.40
2019-03-21T20:12:05.518Z,80.50
2019-03-21T20:14:36.010Z,80.30
2019-03-21T20:17:06.732Z,80.50
2019-03-21T20:19:36.638Z,81.70
2019-03-21T20:22:06.614Z,83.40
2019-03-21T20:24:37.493Z,84.30
2019-03-21T20:27:09.987Z,85.70
2019-03-21T20:29:40.793Z,86.80
2019-03-21T20:32:20.110Z,87.50
2019-03-21T20:34:42.353Z,89.00
2019-03-21T20:37:12.498Z,90.60
2019-03-21T20:39:43.780Z,91.00
2019-03-21T20:42:13.922Z,92.50
2019-03-21T20:44:43.793Z,93.20
2019-03-21T20:47:14.049Z,94.30
2019-03-21T20:49:44.737Z,94.70
2019-03-21T20:52:14.768Z,96.10
2019-03-21T20:54:45.264Z,96.90
2019-03-21T20:57:15.572Z,97.70
2019-03-21T20:59:46.204Z,98.90
2019-03-21T21:02:16.109Z,99.10
2019-03-21T21:04:45.997Z,99.90
2019-03-21T21:07:16.225Z,99.90
2019-03-21T21:09:46.029Z,99.90
2019-03-21T21:12:15.824Z,99.90
2019-03-21T21:14:46.230Z,99.90
2019-03-21T21:17:16.148Z,99.90
2019-03-21T21:19:46.139Z,99.90
2019-03-21T21:22:15.906Z,99.90
2019-03-21T21:24:45.982Z,99.90
2019-03-21T21:27:15.813Z,99.90
2019-03-21T21:29:45.793Z,99.90
2019-03-21T21:32:15.726Z,99.90
2019-03-21T21:34:45.670Z,99.90
2019-03-21T21:37:15.841Z,99.90
2019-03-21T21:39:45.922Z,99.90
2019-03-21T21:42:15.838Z,99.90
2019-03-21T21:44:45.661Z,99.90
2019-03-21T21:47:15.934Z,99.90
2019-03-21T21:49:46.106Z,99.90
2019-03-21T21:52:15.965Z,99.90
2019-03-21T21:54:45.846Z,99.90
2019-03-21T21:57:15.992Z,99.90
2019-03-21T21:59:45.892Z,99.90
2019-03-21T22:02:15.717Z,99.90
2019-03-21T22:04:46.010Z,99.90
2019-03-21T22:07:15.835Z,99.90
2019-03-21T22:09:45.576Z,99.90
2019-03-21T22:12:15.598Z,99.90
2019-03-21T22:14:45.460Z,99.90
2019-03-21T22:17:15.803Z,99.90
2019-03-21T22:19:45.644Z,99.90
2019-03-21T22:22:15.795Z,99.90
2019-03-21T22:24:45.639Z,99.90
2019-03-21T22:27:15.375Z,99.90
2019-03-21T22:29:45.178Z,99.90
2019-03-21T22:32:15.217Z,99.90
2019-03-21T22:34:45.026Z,99.90
2019-03-21T22:37:15.114Z,99.90
2019-03-21T22:39:45.241Z,99.90
2019-03-21T22:42:14.992Z,99.90
2019-03-21T22:44:44.794Z,99.90
2019-03-21T22:47:14.859Z,99.90
2019-03-21T22:49:44.631Z,99.90
2019-03-21T22:52:14.695Z,99.90
2019-03-21T22:54:44.458Z,99.90
2019-03-21T22:57:14.257Z,99.90
2019-03-21T22:59:44.338Z,99.90
2019-03-21T23:02:14.514Z,99.90
2019-03-21T23:04:44.465Z,99.90
2019-03-21T23:07:14.331Z,99.90
2019-03-21T23:09:44.165Z,99.90
2019-03-21T23:12:14.201Z,99.90
2019-03-21T23:14:44.381Z,99.90
2019-03-21T23:17:14.242Z,99.90
2019-03-21T23:19:44.251Z,99.90
2019-03-21T23:22:13.940Z,99.90
2019-03-21T23:24:43.977Z,99.90
2019-03-21T23:27:14.246Z,99.90
2019-03-21T23:29:43.990Z,99.90
2019-03-21T23:32:13.798Z,99.90
2019-03-21T23:34:43.527Z,99.90
2019-03-21T23:37:13.674Z,99.90
2019-03-21T23:39:44.034Z,99.90
2019-03-21T23:42:13.782Z,99.90
2019-03-21T23:44:43.595Z,99.90
2019-03-21T23:47:13.404Z,99.90
2019-03-21T23:49:43.125Z,99.90
2019-03-21T23:52:12.949Z,99.90
2019-03-21T23:54:42.796Z,99.90
2019-03-21T23:57:12.491Z,99.90
2019-03-21T23:59:42.474Z,99.90
